createdAt,value
2022-10-13T00:00:45.577Z,81.69
2022-10-13T00:03:17.031Z,81.82
2022-10-13T00:05:49.654Z,81.65
2022-10-13T00:08:22.110Z,81.52
2022-10-13T00:10:53.129Z,81.54
2022-10-13T00:13:27.361Z,81.65
2022-10-13T00:15:57.943Z,81.76
2022-10-13T00:18:31.552Z,81.46
2022-10-13T00:21:02.058Z,81.36
2022-10-13T00:23:32.676Z,81.32
2022-10-13T00:26:05.535Z,81.40
2022-10-13T00:28:36.314Z,81.51
2022-10-13T00:31:10.697Z,81.38
2022-10-13T00:33:41.181Z,81.24
2022-10-13T00:36:11.977Z,81.28
2022-10-13T00:38:42.422Z,81.36
2022-10-13T00:41:12.956Z,81.45
2022-10-13T00:43:58.092Z,81.69
2022-10-13T00:46:30.582Z,81.87
2022-10-13T00:49:05.648Z,81.79
2022-10-13T00:51:39.657Z,81.87
2022-10-13T00:54:13.177Z,81.91
2022-10-13T00:56:43.844Z,82.14
2022-10-13T00:59:19.089Z,82.31
2022-10-13T01:01:49.914Z,82.44
2022-10-13T01:04:22.745Z,82.58
2022-10-13T01:06:53.347Z,82.77
2022-10-13T01:09:23.841Z,83.04
2022-10-13T01:12:02.563Z,83.36
2022-10-13T01:14:37.546Z,83.36
2022-10-13T01:17:13.085Z,83.48
2022-10-13T01:20:17.768Z,83.53
2022-10-13T01:22:58.797Z,83.55
2022-10-13T01:25:45.597Z,83.52
2022-10-13T01:28:40.142Z,83.68
2022-10-13T01:31:16.293Z,83.91
2022-10-13T01:33:51.940Z,84.06
2022-10-13T01:36:30.176Z,84.29
2022-10-13T01:39:04.814Z,84.32
2022-10-13T01:41:38.811Z,84.38
2022-10-13T01:44:16.345Z,84.48
2022-10-13T01:46:54.442Z,84.60
2022-10-13T01:49:28.531Z,84.56
2022-10-13T01:52:02.766Z,84.64
2022-10-13T01:54:34.909Z,84.64
2022-10-13T01:57:05.689Z,84.51
2022-10-13T01:59:38.756Z,84.53
2022-10-13T02:02:13.676Z,84.57
2022-10-13T02:04:52.528Z,84.55
2022-10-13T02:07:26.803Z,84.49
2022-10-13T02:10:02.253Z,84.43
2022-10-13T02:12:36.324Z,84.44
2022-10-13T02:15:08.817Z,84.41
2022-10-13T02:17:39.318Z,84.46
2022-10-13T02:20:11.780Z,84.72
2022-10-13T02:22:44.437Z,84.86
2022-10-13T02:25:15.020Z,84.95
2022-10-13T02:27:46.051Z,84.68
2022-10-13T02:30:25.475Z,84.62
2022-10-13T02:32:55.924Z,84.63
2022-10-13T02:35:26.334Z,84.62
2022-10-13T02:37:56.746Z,84.69
2022-10-13T02:40:27.512Z,84.63
2022-10-13T02:42:58.048Z,84.80
2022-10-13T02:45:28.464Z,85.06
2022-10-13T02:47:59.036Z,85.16
2022-10-13T02:50:29.625Z,85.15
2022-10-13T02:53:00.344Z,85.26
2022-10-13T02:55:31.966Z,85.16
2022-10-13T02:58:02.977Z,85.14
2022-10-13T03:00:33.504Z,84.91
2022-10-13T03:03:04.329Z,84.86
2022-10-13T03:05:35.629Z,84.80
2022-10-13T03:08:06.657Z,84.80
2022-10-13T03:10:37.118Z,84.60
2022-10-13T03:13:07.679Z,84.57
2022-10-13T03:15:38.309Z,84.49
2022-10-13T03:18:09.694Z,84.37
2022-10-13T03:20:40.162Z,84.35
2022-10-13T03:23:10.618Z,84.16
2022-10-13T03:25:41.404Z,84.10
2022-10-13T03:28:15.508Z,84.13
2022-10-13T03:30:47.083Z,84.06
2022-10-13T03:33:18.030Z,84.09
2022-10-13T03:35:48.721Z,84.16
2022-10-13T03:38:19.423Z,84.04
2022-10-13T03:40:50.358Z,84.07
2022-10-13T03:43:20.992Z,84.04
2022-10-13T03:45:58.491Z,83.91
2022-10-13T03:48:45.031Z,83.88
2022-10-13T03:51:17.525Z,83.74
2022-10-13T03:53:53.754Z,83.84
2022-10-13T03:56:26.012Z,83.92
2022-10-13T03:58:58.307Z,83.92
2022-10-13T04:01:31.034Z,83.96
2022-10-13T04:04:03.294Z,83.98
2022-10-13T04:06:34.423Z,83.90
2022-10-13T04:09:05.177Z,83.91
2022-10-13T04:11:35.804Z,83.82
2022-10-13T04:20:01.517Z,83.40
2022-10-13T04:22:32.371Z,83.51
2022-10-13T04:25:03.380Z,83.43
2022-10-13T04:27:34.180Z,83.43
2022-10-13T04:30:09.472Z,83.51
2022-10-13T04:32:42.302Z,83.46
2022-10-13T04:35:15.024Z,83.75
2022-10-13T04:37:45.476Z,83.64
2022-10-13T04:40:16.234Z,83.52
2022-10-13T04:42:46.843Z,83.47
2022-10-13T04:45:17.393Z,83.62
2022-10-13T04:47:53.484Z,83.71
2022-10-13T04:50:25.626Z,83.66
2022-10-13T04:53:02.572Z,83.57
2022-10-13T04:55:33.507Z,83.65
2022-10-13T04:58:04.232Z,83.41
2022-10-13T05:00:34.910Z,83.38
2022-10-13T05:03:05.648Z,83.50
2022-10-13T05:05:38.687Z,83.42
2022-10-13T05:08:07.797Z,83.57
2022-10-13T05:10:38.373Z,83.78
2022-10-13T05:13:08.971Z,83.78
2022-10-13T05:15:41.242Z,83.68
2022-10-13T05:18:11.651Z,83.70
2022-10-13T05:20:42.079Z,83.85
2022-10-13T05:23:12.557Z,83.94
2022-10-13T05:25:43.002Z,83.89
2022-10-13T05:28:16.749Z,83.91
2022-10-13T05:30:47.664Z,84.04
2022-10-13T05:33:18.277Z,84.08
2022-10-13T05:42:04.684Z,84.16
2022-10-13T05:44:36.450Z,84.23
2022-10-13T05:47:07.752Z,84.07
2022-10-13T05:49:39.705Z,83.86
2022-10-13T05:52:11.587Z,83.94
2022-10-13T05:54:44.098Z,84.07
2022-10-13T05:57:14.407Z,84.19
2022-10-13T05:59:51.764Z,84.30
2022-10-13T06:02:23.761Z,84.34
2022-10-13T06:04:56.881Z,84.52
2022-10-13T06:07:27.460Z,84.56
2022-10-13T06:09:58.910Z,84.45
2022-10-13T06:12:29.442Z,84.35
2022-10-13T06:14:59.876Z,84.42
2022-10-13T06:17:30.514Z,84.47
2022-10-13T06:20:00.971Z,84.23
2022-10-13T06:22:31.715Z,84.09
2022-10-13T06:25:02.408Z,83.88
2022-10-13T06:27:33.566Z,83.84
2022-10-13T06:30:04.344Z,83.95
2022-10-13T06:32:35.008Z,84.18
2022-10-13T06:35:06.295Z,84.36
2022-10-13T06:37:36.987Z,84.20
2022-10-13T06:40:10.694Z,84.09
2022-10-13T06:42:41.337Z,84.02
2022-10-13T06:45:13.394Z,83.77
2022-10-13T06:47:43.965Z,83.62
2022-10-13T06:50:14.977Z,83.47
2022-10-13T06:52:45.526Z,83.32
2022-10-13T06:55:16.946Z,83.31
2022-10-13T06:57:47.864Z,83.17
2022-10-13T07:00:19.111Z,83.05
2022-10-13T07:02:53.725Z,83.09
2022-10-13T07:05:25.162Z,82.95
2022-10-13T07:07:55.886Z,82.77
2022-10-13T07:10:26.390Z,82.70
2022-10-13T07:12:56.923Z,82.67
2022-10-13T07:15:28.857Z,82.70
2022-10-13T07:17:59.503Z,82.63
2022-10-13T07:20:31.111Z,82.57
2022-10-13T07:23:02.892Z,82.49
2022-10-13T07:25:33.667Z,82.23
2022-10-13T07:28:04.433Z,81.98
2022-10-13T07:30:35.105Z,81.74
2022-10-13T07:33:05.775Z,81.39
2022-10-13T07:35:38.936Z,80.97
2022-10-13T07:38:09.996Z,80.55
2022-10-13T07:40:40.718Z,80.28
2022-10-13T07:43:11.181Z,80.36
2022-10-13T07:45:41.723Z,80.13
2022-10-13T07:48:12.428Z,80.08
2022-10-13T07:50:43.179Z,79.57
2022-10-13T07:53:13.655Z,79.39
2022-10-13T07:55:44.201Z,79.19
2022-10-13T07:58:14.996Z,78.97
2022-10-13T08:00:45.487Z,78.66
2022-10-13T08:03:16.045Z,78.51
2022-10-13T08:05:46.515Z,77.98
2022-10-13T08:08:17.049Z,77.71
2022-10-13T08:10:47.811Z,77.46
2022-10-13T08:13:18.422Z,77.49
2022-10-13T08:15:49.112Z,77.03
2022-10-13T08:18:19.757Z,76.71
2022-10-13T08:20:50.306Z,76.56
2022-10-13T08:23:21.840Z,76.33
2022-10-13T08:25:53.926Z,76.47
2022-10-13T08:28:28.362Z,76.76
2022-10-13T08:30:59.413Z,76.92
2022-10-13T08:33:29.914Z,76.72
2022-10-13T08:36:00.475Z,76.72
2022-10-13T08:38:31.047Z,77.07
2022-10-13T08:41:01.659Z,77.12
2022-10-13T08:43:34.766Z,77.06
2022-10-13T08:46:05.534Z,77.14
2022-10-13T08:48:37.399Z,77.20
2022-10-13T08:51:09.038Z,76.99
2022-10-13T08:53:42.681Z,77.03
2022-10-13T08:56:19.306Z,77.02
2022-10-13T08:58:51.630Z,77.32
2022-10-13T09:01:23.728Z,77.58
2022-10-13T09:03:56.577Z,77.48
2022-10-13T09:06:28.820Z,77.40
2022-10-13T09:09:02.492Z,77.45
2022-10-13T09:11:35.951Z,77.25
2022-10-13T09:14:08.530Z,77.43
2022-10-13T09:16:41.543Z,77.24
2022-10-13T09:19:23.794Z,76.94
2022-10-13T09:21:55.698Z,76.93
2022-10-13T09:24:27.863Z,76.45
2022-10-13T09:27:08.374Z,76.41
2022-10-13T09:29:43.097Z,76.28
2022-10-13T09:32:23.804Z,76.32
2022-10-13T09:34:55.548Z,76.24
2022-10-13T09:37:26.686Z,75.86
2022-10-13T09:40:13.456Z,75.78
2022-10-13T09:42:44.172Z,75.68
2022-10-13T09:45:18.239Z,75.59
2022-10-13T09:47:55.351Z,75.26
2022-10-13T09:50:27.919Z,74.78
2022-10-13T09:53:17.329Z,74.41
2022-10-13T09:55:49.564Z,73.86
2022-10-13T09:58:26.269Z,73.62
2022-10-13T10:00:57.150Z,73.56
2022-10-13T10:03:30.723Z,73.61
2022-10-13T10:06:03.483Z,73.67
2022-10-13T10:08:38.814Z,73.92
2022-10-13T10:11:14.997Z,73.80
2022-10-13T10:13:46.123Z,73.60
2022-10-13T10:16:24.744Z,73.59
2022-10-13T10:19:00.409Z,73.18
2022-10-13T10:21:34.758Z,72.91
2022-10-13T10:24:13.894Z,72.10
2022-10-13T10:26:50.047Z,71.88
2022-10-13T10:29:27.506Z,71.32
2022-10-13T10:32:11.224Z,70.91
2022-10-13T10:34:46.684Z,70.62
2022-10-13T10:37:25.595Z,70.26
2022-10-13T10:40:04.678Z,70.14
2022-10-13T10:42:55.325Z,70.06
2022-10-13T10:45:29.437Z,69.96
2022-10-13T10:48:03.127Z,70.12
2022-10-13T10:50:34.614Z,70.45
2022-10-13T10:53:10.157Z,69.98
2022-10-13T10:55:47.677Z,69.97
2022-10-13T10:58:28.527Z,69.73
2022-10-13T11:01:04.114Z,69.49
2022-10-13T11:03:44.747Z,69.10
2022-10-13T11:06:37.427Z,69.42
2022-10-13T11:09:11.136Z,69.42
2022-10-13T11:11:43.218Z,69.70
2022-10-13T11:14:34.487Z,69.70
2022-10-13T11:17:19.728Z,69.67
2022-10-13T11:19:51.482Z,69.32
2022-10-13T11:22:24.370Z,68.24
2022-10-13T11:25:00.350Z,66.97
2022-10-13T11:27:45.203Z,66.28
2022-10-13T11:30:43.321Z,65.27
2022-10-13T11:33:37.496Z,62.48
2022-10-13T11:36:44.830Z,61.08
2022-10-13T11:39:38.605Z,59.32
2022-10-13T11:42:27.837Z,58.96
2022-10-13T11:45:00.435Z,58.22
2022-10-13T11:47:53.852Z,57.81
2022-10-13T11:50:33.719Z,57.98
2022-10-13T11:53:16.223Z,59.04
2022-10-13T11:55:53.005Z,59.30
2022-10-13T11:58:25.199Z,60.11
2022-10-13T12:00:58.640Z,60.92
2022-10-13T12:03:33.768Z,61.63
2022-10-13T12:06:06.386Z,61.74
2022-10-13T12:08:38.311Z,62.27
2022-10-13T12:11:10.618Z,62.96
2022-10-13T12:13:41.157Z,63.31
2022-10-13T12:16:13.368Z,63.81
2022-10-13T12:18:45.654Z,64.63
2022-10-13T12:21:19.930Z,65.00
2022-10-13T12:23:51.782Z,65.47
2022-10-13T12:26:24.258Z,65.53
2022-10-13T12:28:56.156Z,65.76
2022-10-13T12:31:28.933Z,65.71
2022-10-13T12:33:58.525Z,65.65
2022-10-13T12:36:31.715Z,66.09
2022-10-13T12:39:05.680Z,66.23
2022-10-13T12:41:35.756Z,66.19
2022-10-13T12:44:07.061Z,66.13
2022-10-13T12:46:46.672Z,66.47
2022-10-13T12:51:57.538Z,66.92
2022-10-13T12:54:30.035Z,66.56
2022-10-13T12:57:02.768Z,66.66
2022-10-13T12:59:31.886Z,66.67
2022-10-13T13:02:05.345Z,66.76
2022-10-13T13:04:43.232Z,66.76
2022-10-13T13:07:29.961Z,67.08
2022-10-13T13:10:10.737Z,67.05
2022-10-13T13:12:41.289Z,67.12
2022-10-13T13:15:34.330Z,67.65
2022-10-13T13:18:25.667Z,67.33
2022-10-13T13:20:56.481Z,67.60
2022-10-13T13:23:33.304Z,67.54
2022-10-13T13:26:07.129Z,67.21
2022-10-13T13:28:37.625Z,66.75
2022-10-13T13:31:09.843Z,66.67
2022-10-13T13:33:40.337Z,67.19
2022-10-13T13:36:17.512Z,67.31
2022-10-13T13:38:50.501Z,67.58
2022-10-13T13:41:21.168Z,67.55
2022-10-13T13:43:51.649Z,67.39
2022-10-13T13:46:24.501Z,67.44
2022-10-13T13:48:57.328Z,67.55
2022-10-13T13:51:27.735Z,67.64
2022-10-13T13:53:58.385Z,67.79
2022-10-13T13:56:28.890Z,67.97
2022-10-13T13:58:59.445Z,67.98
2022-10-13T14:01:29.894Z,68.07
2022-10-13T14:04:00.575Z,68.02
2022-10-13T14:06:31.388Z,68.36
2022-10-13T14:09:02.978Z,68.75
2022-10-13T14:11:33.670Z,68.99
2022-10-13T14:14:04.353Z,68.97
2022-10-13T14:16:34.791Z,68.78
2022-10-13T14:19:07.429Z,68.71
2022-10-13T14:21:37.923Z,68.67
2022-10-13T14:24:10.797Z,68.47
2022-10-13T14:26:41.485Z,68.28
2022-10-13T14:29:11.956Z,68.10
2022-10-13T14:31:42.410Z,68.48
2022-10-13T14:34:16.567Z,68.45
2022-10-13T14:36:47.243Z,68.43
2022-10-13T14:39:19.546Z,68.95
2022-10-13T14:41:50.260Z,69.41
2022-10-13T14:44:21.207Z,69.69
2022-10-13T14:46:52.361Z,69.79
2022-10-13T14:49:22.838Z,70.15
2022-10-13T14:51:54.007Z,70.60
2022-10-13T14:54:24.545Z,70.92
2022-10-13T14:56:55.062Z,71.09
2022-10-13T14:59:25.412Z,71.24
2022-10-13T15:01:55.730Z,71.50
2022-10-13T15:04:26.406Z,71.59
2022-10-13T15:06:56.767Z,71.73
2022-10-13T15:09:38.983Z,71.82
2022-10-13T15:12:19.974Z,71.81
2022-10-13T15:14:50.680Z,72.00
2022-10-13T15:17:21.179Z,72.06
2022-10-13T15:19:51.861Z,71.95
2022-10-13T15:22:22.781Z,71.91
2022-10-13T15:24:53.590Z,72.03
2022-10-13T15:27:24.246Z,72.16
2022-10-13T15:29:54.862Z,72.15
2022-10-13T15:32:25.494Z,72.26
2022-10-13T15:35:04.514Z,72.33
2022-10-13T15:37:37.730Z,72.53
2022-10-13T15:40:10.543Z,72.46
2022-10-13T15:42:39.490Z,72.64
2022-10-13T15:45:11.797Z,72.84
2022-10-13T15:47:42.560Z,73.21
2022-10-13T15:50:13.101Z,73.42
2022-10-13T15:52:43.768Z,73.57
2022-10-13T15:55:14.724Z,73.74
2022-10-13T15:57:45.751Z,74.04
2022-10-13T16:00:18.235Z,74.09
2022-10-13T16:02:52.010Z,74.34
2022-10-13T16:05:22.939Z,74.55
2022-10-13T16:07:54.355Z,74.84
2022-10-13T16:10:24.756Z,75.05
2022-10-13T16:12:55.166Z,75.15
2022-10-13T16:15:25.549Z,75.47
2022-10-13T16:17:56.191Z,75.50
2022-10-13T16:20:26.817Z,75.45
2022-10-13T16:22:57.624Z,75.65
2022-10-13T16:25:32.154Z,75.81
2022-10-13T16:28:06.371Z,75.84
2022-10-13T16:30:39.384Z,76.03
2022-10-13T16:33:09.908Z,76.28
2022-10-13T16:35:43.971Z,76.35
2022-10-13T16:38:15.736Z,76.66
2022-10-13T16:40:46.681Z,76.85
2022-10-13T16:43:18.348Z,77.15
2022-10-13T16:46:00.227Z,77.27
2022-10-13T16:48:32.695Z,77.66
2022-10-13T16:51:08.267Z,77.81
2022-10-13T16:53:41.248Z,78.04
2022-10-13T16:56:12.210Z,78.18
2022-10-13T16:58:44.929Z,78.40
2022-10-13T17:01:15.572Z,78.60
2022-10-13T17:03:47.304Z,78.85
2022-10-13T17:06:19.728Z,78.94
2022-10-13T17:08:57.449Z,79.07
2022-10-13T17:11:30.314Z,79.23
2022-10-13T17:14:02.080Z,79.30
2022-10-13T17:16:36.280Z,79.45
2022-10-13T17:19:07.115Z,79.63
2022-10-13T17:21:39.572Z,79.77
2022-10-13T17:24:12.381Z,79.83
2022-10-13T17:26:45.140Z,80.00
2022-10-13T17:29:18.557Z,79.99
2022-10-13T17:31:50.592Z,80.21
2022-10-13T17:34:22.656Z,80.32
2022-10-13T17:36:57.129Z,80.33
2022-10-13T17:39:29.296Z,80.47
2022-10-13T17:42:02.174Z,80.67
2022-10-13T17:44:34.753Z,80.69
2022-10-13T17:47:08.195Z,80.75
2022-10-13T17:49:41.733Z,80.67
2022-10-13T17:52:15.169Z,80.81
2022-10-13T17:54:49.471Z,80.85
2022-10-13T17:57:22.616Z,80.95
2022-10-13T17:59:54.490Z,81.07
2022-10-13T18:02:29.204Z,81.15
2022-10-13T18:05:01.529Z,81.22
2022-10-13T18:07:35.467Z,81.31
2022-10-13T18:10:11.207Z,81.40
2022-10-13T18:12:42.892Z,81.57
2022-10-13T18:15:17.692Z,81.50
2022-10-13T18:17:51.356Z,81.38
2022-10-13T18:20:24.058Z,81.63
2022-10-13T18:22:59.183Z,81.60
2022-10-13T18:31:39.829Z,82.11
2022-10-13T18:34:11.959Z,82.24
2022-10-13T18:36:55.884Z,82.32
2022-10-13T18:39:28.064Z,82.24
2022-10-13T18:41:59.312Z,82.42
2022-10-13T18:44:39.775Z,82.80
2022-10-13T18:47:10.320Z,82.77
2022-10-13T18:49:42.164Z,82.86
2022-10-13T18:52:12.847Z,82.93
2022-10-13T18:54:43.204Z,83.01
2022-10-13T18:57:13.746Z,83.21
2022-10-13T18:59:45.289Z,83.35
2022-10-13T19:02:16.460Z,83.29
2022-10-13T19:04:54.405Z,83.39
2022-10-13T19:07:36.843Z,83.36
2022-10-13T19:10:16.453Z,83.50
2022-10-13T19:12:47.091Z,83.49
2022-10-13T19:15:17.922Z,83.44
2022-10-13T19:17:48.422Z,83.52
2022-10-13T19:20:19.077Z,83.71
2022-10-13T19:22:57.279Z,83.67
2022-10-13T19:25:27.792Z,83.65
2022-10-13T19:27:58.494Z,83.58
2022-10-13T19:30:29.272Z,83.63
2022-10-13T19:33:00.252Z,83.62
2022-10-13T19:35:30.973Z,83.83
2022-10-13T19:38:01.569Z,83.95
2022-10-13T19:40:35.305Z,83.71
2022-10-13T19:43:07.270Z,83.89
2022-10-13T19:45:37.798Z,83.90
2022-10-13T19:48:11.164Z,83.93
2022-10-13T19:50:42.547Z,83.99
2022-10-13T19:53:17.489Z,83.91
2022-10-13T19:55:49.555Z,83.86
2022-10-13T19:58:20.268Z,83.87
2022-10-13T20:00:52.125Z,83.76
2022-10-13T20:03:22.683Z,83.54
2022-10-13T20:05:55.404Z,83.37
2022-10-13T20:08:26.013Z,83.34
2022-10-13T20:11:00.765Z,83.30
2022-10-13T20:13:31.591Z,83.27
2022-10-13T20:16:05.188Z,83.39
2022-10-13T20:18:36.377Z,83.28
2022-10-13T20:21:08.721Z,83.38
2022-10-13T20:23:40.697Z,83.11
2022-10-13T20:26:13.929Z,82.98
2022-10-13T20:28:45.608Z,83.08
2022-10-13T20:31:18.944Z,82.98
2022-10-13T20:33:50.626Z,82.85
2022-10-13T20:36:22.286Z,83.13
2022-10-13T20:38:52.993Z,83.20
2022-10-13T20:41:25.676Z,83.32
2022-10-13T20:43:58.053Z,83.27
2022-10-13T20:46:29.022Z,83.32
2022-10-13T20:49:15.042Z,83.43
2022-10-13T20:51:45.661Z,83.36
2022-10-13T20:54:17.306Z,83.25
2022-10-13T20:56:48.156Z,83.45
2022-10-13T20:59:18.813Z,83.12
2022-10-13T21:01:49.332Z,83.31
2022-10-13T21:04:20.184Z,83.26
2022-10-13T21:06:50.971Z,83.40
2022-10-13T21:09:21.590Z,83.40
2022-10-13T21:11:52.248Z,83.41
2022-10-13T21:14:22.856Z,83.36
2022-10-13T21:16:53.450Z,83.32
2022-10-13T21:19:24.123Z,83.57
2022-10-13T21:21:54.531Z,83.54
2022-10-13T21:24:24.994Z,83.52
2022-10-13T21:26:55.428Z,83.74
2022-10-13T21:29:26.845Z,83.74
2022-10-13T21:31:57.680Z,83.90
2022-10-13T21:34:28.437Z,83.93
2022-10-13T21:36:58.953Z,83.92
2022-10-13T21:39:29.492Z,83.85
2022-10-13T21:41:59.874Z,83.88
2022-10-13T21:44:31.474Z,83.89
2022-10-13T21:47:02.146Z,83.92
2022-10-13T21:49:32.972Z,83.99
2022-10-13T21:52:03.598Z,84.20
2022-10-13T21:54:34.388Z,84.30
2022-10-13T21:57:04.961Z,84.35
2022-10-13T21:59:35.572Z,84.46
2022-10-13T22:02:06.228Z,84.41
2022-10-13T22:04:37.117Z,84.61
2022-10-13T22:07:08.067Z,84.62
2022-10-13T22:09:38.663Z,84.76
2022-10-13T22:12:09.383Z,84.69
2022-10-13T22:14:39.954Z,84.84
2022-10-13T22:17:10.398Z,84.81
2022-10-13T22:19:40.837Z,84.87
2022-10-13T22:22:11.299Z,84.78
2022-10-13T22:24:41.818Z,84.85
2022-10-13T22:27:12.485Z,84.83
2022-10-13T22:29:43.071Z,84.89
2022-10-13T22:32:13.807Z,84.85
2022-10-13T22:34:46.249Z,84.92
2022-10-13T22:37:17.290Z,85.02
2022-10-13T22:39:47.887Z,85.14
2022-10-13T22:42:18.638Z,85.21
2022-10-13T22:44:49.245Z,85.26
2022-10-13T22:47:20.083Z,85.55
2022-10-13T22:49:50.928Z,85.52
2022-10-13T22:52:22.461Z,85.58
2022-10-13T22:54:53.991Z,85.52
2022-10-13T22:57:25.070Z,85.39
2022-10-13T22:59:55.867Z,85.41
2022-10-13T23:02:26.361Z,85.42
2022-10-13T23:04:56.789Z,85.49
2022-10-13T23:07:27.385Z,85.38
2022-10-13T23:09:57.757Z,85.28
2022-10-13T23:12:28.135Z,85.25
2022-10-13T23:14:58.748Z,85.30
2022-10-13T23:17:29.327Z,85.39
2022-10-13T23:20:00.131Z,85.23
2022-10-13T23:22:30.776Z,85.24
2022-10-13T23:25:01.358Z,85.33
2022-10-13T23:27:32.044Z,85.22
2022-10-13T23:30:02.801Z,85.06
2022-10-13T23:32:34.891Z,85.08
2022-10-13T23:35:05.865Z,84.89
2022-10-13T23:37:36.450Z,84.92
2022-10-13T23:40:08.548Z,84.96
2022-10-13T23:42:39.063Z,85.03
2022-10-13T23:45:10.936Z,85.09
2022-10-13T23:47:41.390Z,85.15
2022-10-13T23:50:12.422Z,85.17
2022-10-13T23:52:42.847Z,85.31
2022-10-13T23:55:13.318Z,85.23
2022-10-13T23:57:43.925Z,85.01
